createdAt,value
2018-07-14T00:01:47.871Z,14.70
2018-07-14T00:06:45.047Z,14.40
2018-07-14T00:14:10.641Z,13.80
2018-07-14T00:19:07.791Z,14.50
2018-07-14T00:24:09.361Z,14.00
2018-07-14T00:34:03.271Z,13.90
2018-07-14T00:39:00.908Z,13.80
2018-07-14T00:43:58.110Z,14.10
2018-07-14T00:48:55.240Z,14.10
2018-07-14T00:51:24.049Z,13.40
2018-07-14T01:03:46.358Z,13.60
2018-07-14T01:06:15.145Z,13.40
2018-07-14T01:13:40.830Z,13.50
2018-07-14T01:21:06.387Z,13.70
2018-07-14T01:38:26.152Z,13.00
2018-07-14T01:40:55.222Z,13.00
2018-07-14T01:50:49.243Z,13.60
2018-07-14T01:55:46.333Z,12.60
2018-07-14T01:58:15.063Z,13.20
2018-07-14T02:00:43.839Z,12.80
2018-07-14T02:08:09.396Z,12.70
2018-07-14T02:18:03.332Z,13.00
2018-07-14T02:27:57.319Z,13.10
2018-07-14T02:35:22.878Z,12.70
2018-07-14T02:37:52.022Z,12.50
2018-07-14T02:40:20.789Z,12.90
2018-07-14T02:50:14.823Z,12.70
2018-07-14T02:55:12.008Z,12.90
2018-07-14T03:00:09.205Z,12.90
2018-07-14T03:10:03.110Z,12.50
2018-07-14T03:12:31.903Z,12.60
2018-07-14T03:24:54.192Z,12.30
2018-07-14T03:29:51.378Z,12.50
2018-07-14T03:32:20.159Z,12.50
2018-07-14T03:39:45.691Z,12.40
2018-07-14T03:52:08.095Z,12.70
2018-07-14T03:54:37.709Z,12.60
2018-07-14T04:09:28.527Z,13.10
2018-07-14T04:11:57.236Z,13.30
2018-07-14T04:14:25.994Z,13.50
2018-07-14T04:24:20.423Z,13.30
2018-07-14T04:31:44.262Z,13.50
2018-07-14T04:34:14.322Z,13.90
2018-07-14T04:39:10.605Z,14.30
2018-07-14T04:44:07.785Z,14.20
2018-07-14T04:46:35.701Z,14.40
2018-07-14T04:53:58.863Z,14.50
2018-07-14T05:06:17.169Z,14.50
2018-07-14T05:11:12.602Z,14.50
2018-07-14T05:16:08.065Z,15.20
2018-07-14T05:25:58.653Z,15.00
2018-07-14T05:30:54.114Z,15.40
2018-07-14T05:35:49.631Z,15.20
2018-07-14T05:38:17.597Z,15.90
2018-07-14T05:50:36.094Z,15.90
2018-07-14T05:57:59.134Z,15.70
2018-07-14T06:25:02.701Z,16.90
2018-07-14T06:44:43.816Z,17.50
2018-07-14T07:01:57.161Z,17.30
2018-07-14T07:09:20.282Z,17.50
2018-07-14T07:21:38.526Z,17.50
2018-07-14T07:24:06.467Z,17.70
2018-07-14T07:29:02.002Z,18.70
2018-07-14T07:33:57.610Z,18.40
2018-07-14T07:38:53.259Z,18.60
2018-07-14T07:51:11.529Z,18.60
2018-07-14T08:05:57.400Z,19.10
2018-07-14T08:10:54.558Z,19.20
2018-07-14T08:13:23.322Z,19.70
2018-07-14T08:15:52.051Z,19.80
2018-07-14T08:23:17.655Z,20.10
2018-07-14T08:25:46.440Z,19.40
2018-07-14T08:30:43.576Z,19.60
2018-07-14T08:35:40.750Z,20.40
2018-07-14T08:45:35.485Z,19.20
2018-07-14T08:48:04.261Z,19.10
2018-07-14T08:53:02.033Z,18.70
2018-07-14T08:57:59.233Z,20.10
2018-07-14T09:02:56.476Z,19.90
2018-07-14T09:05:25.332Z,20.40
2018-07-14T09:10:22.492Z,20.80
2018-07-14T09:20:16.831Z,20.40
2018-07-14T09:22:45.672Z,20.90
2018-07-14T09:32:39.653Z,21.70
2018-07-14T09:45:01.964Z,22.90
2018-07-14T09:49:59.227Z,22.40
2018-07-14T09:57:24.718Z,22.00
2018-07-14T10:02:21.930Z,23.00
2018-07-14T10:04:50.669Z,22.70
2018-07-14T10:07:19.471Z,22.60
2018-07-14T10:12:16.654Z,22.70
2018-07-14T10:14:45.438Z,22.30
2018-07-14T10:29:36.251Z,23.00
2018-07-14T10:34:33.354Z,23.40
2018-07-14T10:37:02.147Z,23.00
2018-07-14T10:39:30.959Z,22.70
2018-07-14T10:41:59.802Z,23.20
2018-07-14T10:46:56.982Z,22.70
2018-07-14T10:49:25.789Z,22.70
2018-07-14T11:01:48.214Z,23.40
2018-07-14T11:11:42.164Z,23.10
2018-07-14T11:19:07.693Z,24.40
2018-07-14T11:29:25.535Z,25.30
2018-07-14T11:34:22.668Z,26.20
2018-07-14T11:36:51.509Z,25.50
2018-07-14T11:44:17.056Z,26.30
2018-07-14T11:46:45.801Z,24.60
2018-07-14T11:51:42.958Z,25.00
2018-07-14T11:54:11.726Z,24.70
2018-07-14T11:59:08.899Z,24.60
2018-07-14T12:06:34.934Z,24.10
2018-07-14T12:21:30.399Z,23.60
2018-07-14T12:23:59.168Z,23.90
2018-07-14T12:26:28.067Z,24.00
2018-07-14T12:28:56.861Z,24.50
2018-07-14T12:31:25.639Z,23.70
2018-07-14T12:33:54.417Z,23.60
2018-07-14T12:38:51.574Z,23.90
2018-07-14T12:41:20.392Z,24.20
2018-07-14T12:43:49.258Z,24.70
2018-07-14T12:46:18.016Z,25.00
2018-07-14T12:51:15.281Z,24.30
2018-07-14T13:01:09.248Z,25.00
2018-07-14T13:08:34.803Z,26.10
2018-07-14T13:13:31.981Z,27.10
2018-07-14T13:16:00.738Z,27.10
2018-07-14T13:18:29.633Z,27.60
2018-07-14T13:23:26.889Z,27.60
2018-07-14T13:28:24.000Z,26.70
2018-07-14T13:30:52.857Z,27.30
2018-07-14T13:50:40.988Z,26.20
2018-07-14T14:00:35.177Z,26.10
2018-07-14T14:08:00.816Z,27.60
2018-07-14T14:15:26.390Z,28.10
2018-07-14T14:17:55.160Z,27.90
2018-07-14T14:27:49.056Z,28.10
2018-07-14T14:32:46.182Z,29.50
2018-07-14T14:35:14.934Z,28.90
2018-07-14T14:37:43.711Z,29.30
2018-07-14T14:40:12.527Z,28.00
2018-07-14T14:42:41.388Z,28.40
2018-07-14T14:50:07.540Z,27.20
2018-07-14T14:52:36.302Z,26.90
2018-07-14T14:55:05.197Z,27.20
2018-07-14T14:57:34.067Z,28.40
2018-07-14T15:00:02.798Z,29.30
2018-07-14T15:07:28.683Z,31.00
2018-07-14T15:09:57.428Z,30.20
2018-07-14T15:22:20.175Z,29.50
2018-07-14T15:27:17.314Z,28.90
2018-07-14T15:32:14.495Z,28.30
2018-07-14T15:34:43.315Z,28.60
2018-07-14T15:39:40.459Z,26.50
2018-07-14T15:42:09.211Z,28.00
2018-07-14T15:54:32.040Z,31.20
2018-07-14T15:57:00.844Z,31.00
2018-07-14T15:59:29.562Z,31.80
2018-07-14T16:04:26.704Z,30.40
2018-07-14T16:06:55.521Z,31.60
2018-07-14T16:09:24.256Z,31.40
2018-07-14T16:11:53.379Z,30.90
2018-07-14T16:14:22.113Z,31.40
2018-07-14T16:16:50.854Z,30.20
2018-07-14T16:24:16.385Z,28.50
2018-07-14T16:29:13.578Z,29.70
2018-07-14T16:36:40.180Z,32.60
2018-07-14T16:39:10.070Z,32.20
2018-07-14T16:41:40.062Z,31.80
2018-07-14T16:44:08.971Z,31.60
2018-07-14T16:46:37.837Z,30.50
2018-07-14T16:49:06.689Z,30.40
2018-07-14T16:51:35.426Z,30.40
2018-07-14T16:54:04.232Z,30.60
2018-07-14T16:56:33.071Z,30.60
2018-07-14T17:03:58.721Z,31.70
2018-07-14T17:06:27.523Z,31.90
2018-07-14T17:08:56.231Z,31.40
2018-07-14T17:11:25.018Z,32.00
2018-07-14T17:16:22.210Z,30.90
2018-07-14T17:18:50.966Z,31.40
2018-07-14T17:21:19.730Z,31.20
2018-07-14T17:23:48.474Z,30.80
2018-07-14T17:28:45.652Z,30.40
2018-07-14T17:31:14.378Z,29.30
2018-07-14T17:33:43.137Z,30.30
2018-07-14T17:41:08.671Z,30.70
2018-07-14T17:46:06.126Z,29.80
2018-07-14T17:51:03.683Z,28.60
2018-07-14T17:53:32.426Z,27.90
2018-07-14T17:56:01.207Z,27.80
2018-07-14T17:58:29.966Z,28.20
2018-07-14T18:00:58.766Z,28.00
2018-07-14T18:05:55.946Z,27.60
2018-07-14T18:13:21.773Z,26.20
2018-07-14T18:28:10.712Z,23.20
2018-07-14T18:30:39.495Z,22.80
2018-07-14T18:33:08.243Z,22.80
2018-07-14T18:45:30.684Z,22.10
2018-07-14T18:50:28.250Z,22.10
2018-07-14T18:57:53.740Z,21.60
2018-07-14T19:00:22.507Z,21.70
2018-07-14T19:15:11.930Z,20.70
2018-07-14T19:25:02.470Z,20.60
2018-07-14T19:37:24.285Z,20.60
2018-07-14T19:52:15.196Z,19.40
2018-07-14T19:57:11.464Z,19.70
2018-07-14T20:16:53.951Z,17.80
2018-07-14T20:21:49.417Z,18.40
2018-07-14T20:31:39.958Z,18.60
2018-07-14T20:36:47.628Z,18.50
2018-07-14T20:41:43.150Z,18.10
2018-07-14T20:49:07.726Z,18.20
2018-07-14T20:51:35.681Z,18.40
2018-07-14T20:54:03.659Z,18.10
2018-07-14T21:03:54.290Z,17.70
2018-07-14T21:06:22.195Z,18.20
2018-07-14T21:11:17.653Z,17.60
2018-07-14T21:16:14.343Z,17.50
2018-07-14T21:18:42.238Z,17.30
2018-07-14T21:21:10.260Z,17.80
2018-07-14T21:23:38.211Z,17.70
2018-07-14T21:33:32.208Z,17.20
2018-07-14T21:38:29.325Z,17.40
2018-07-14T21:46:05.011Z,16.90
2018-07-14T21:48:33.947Z,16.80
2018-07-14T21:55:59.503Z,16.40
2018-07-14T21:58:28.293Z,16.80
2018-07-14T22:01:05.820Z,16.00
2018-07-14T22:11:01.738Z,16.20
2018-07-14T22:13:29.692Z,16.50
2018-07-14T22:18:25.236Z,16.50
2018-07-14T22:38:06.936Z,15.90
2018-07-14T22:40:34.921Z,16.00
2018-07-14T22:45:30.408Z,15.40
2018-07-14T22:47:58.354Z,15.80
2018-07-14T22:55:22.207Z,15.60
2018-07-14T23:00:18.541Z,15.40
2018-07-14T23:05:15.734Z,14.50
2018-07-14T23:07:45.343Z,15.00
2018-07-14T23:15:10.930Z,14.70
2018-07-14T23:25:04.924Z,14.80
2018-07-14T23:27:33.652Z,14.80
2018-07-14T23:32:30.852Z,14.70
2018-07-14T23:34:59.611Z,14.60
2018-07-14T23:42:25.146Z,14.40
2018-07-14T23:44:53.946Z,13.90
2018-07-14T23:49:51.083Z,13.90
2018-07-14T23:54:48.215Z,14.10
2018-07-14T23:59:45.359Z,14.30
